Home > Products > Valid Products > TAF

000
FTUS42 KGSP 241130
TAFAVL
TAF
KAVL 241130Z 2412/2512 35005KT P6SM BKN170
     FM250000 00000KT P6SM SKC
     FM250900 34004KT 3SM BR SKC=



000
FTUS42 KGSP 241130
TAFGSP
TAF
KGSP 241130Z 2412/2512 34003KT P6SM SCT180 BKN250
     FM241400 05003KT P6SM SCT170
     FM241700 21003KT P6SM SCT160
     FM250000 00000KT P6SM SKC=



000
FTUS42 KGSP 241130
TAFCLT
TAF
KCLT 241130Z 2412/2512 34003KT P6SM BKN210
     FM241600 04003KT P6SM SCT180
     FM242000 23003KT P6SM SCT170
     FM250400 34003KT P6SM SKC=



000
FTUS42 KGSP 240544 RRA
TAFGSP
TAF
KGSP 240544Z 2406/2506 02003KT P6SM SCT180 BKN250
     FM241600 22004KT P6SM SCT160=



000
FTUS42 KGSP 240544 RRA
TAFCLT
TAF
KCLT 240544Z 2406/2506 35003KT P6SM SCT180 BKN250
     FM241600 24003KT P6SM SCT160=



000
FTUS42 KGSP 240544 RRA
TAFAVL
TAF
KAVL 240544Z 2406/2506 35004KT P6SM SCT160 BKN250=



000
FTUS42 KGSP 232320
TAFGSP
TAF
KGSP 232320Z 2400/2424 36003KT P6SM SKC
     FM241700 22005KT P6SM SCT150=



000
FTUS42 KGSP 232320
TAFAVL
TAF
KAVL 232320Z 2400/2424 33009KT P6SM FEW250
     FM240600 33002KT P6SM FEW020
      TEMPO 2408/2412 1/2SM FG FEW007
     FM241400 33007KT P6SM FEW210=



000
FTUS42 KGSP 232320
TAFCLT
TAF
KCLT 232320Z 2400/2424 33003KT P6SM SKC
     FM241600 24005KT P6SM SCT150=



000
FTUS42 KGSP 232051 AAA
TAFCLT
TAF AMD
KCLT 232051Z 2321/2418 33004KT P6SM SKC
     FM241600 28003KT P6SM SCT160=



000
FTUS42 KGSP 231723
TAFCLT
TAF
KCLT 231723Z 2318/2418 35011G16KT P6SM SKC
     FM240000 32004KT P6SM SKC
     FM241600 28003KT P6SM SCT160=



000
FTUS42 KGSP 231723
TAFGSP
TAF
KGSP 231723Z 2318/2418 32004KT P6SM SKC
     FM241600 26003KT P6SM SCT170=



000
FTUS42 KGSP 231723
TAFAVL
TAF
KAVL 231723Z 2318/2418 34015G24KT P6SM SKC
     FM240000 34007KT P6SM FEW024
     FM240800 35003KT P6SM SCT210
      TEMPO 2410/2412 4SM BR=



000
FTUS42 KGSP 231447 AAA
TAFCLT
TAF AMD
KCLT 231447Z 2315/2412 34008KT P6SM SKC
     FM240000 33003KT P6SM FEW250=



000
FTUS42 KGSP 231447 AAA
TAFCLT
TAF AMD
KCLT 231447Z 2315/2412 34008KT P6SM SKC
     FM240000 33003KT P6SM FEW250=



000
FTUS42 KGSP 231356 AAA
TAFAVL
TAF AMD
KAVL 231356Z 2314/2412 35012G20KT P6SM SKC
     FM231900 33012G22KT P6SM FEW250
     FM240800 31005KT P6SM SCT250=



000
FTUS42 KGSP 231122
TAFCLT
TAF
KCLT 231122Z 2312/2412 31004KT P6SM SKC
     FM231500 34008KT P6SM SKC
     FM240000 33003KT P6SM FEW250=



000
FTUS42 KGSP 231122
TAFGSP
TAF
KGSP 231122Z 2312/2412 30003KT P6SM SKC
     FM231800 29007KT P6SM SKC
     FM240000 00000KT P6SM FEW250=



000
FTUS42 KGSP 231122
TAFAVL
TAF
KAVL 231122Z 2312/2412 33010KT P6SM SKC
     FM231900 33009KT P6SM FEW250
     FM240800 31005KT P6SM SCT250=



000
FTUS42 KGSP 230856 AAA
TAFCLT
TAF AMD
KCLT 230856Z 2309/2406 31004KT P6SM SKC
     FM240100 34003KT P6SM FEW250=



000
FTUS42 KGSP 230540 CCA
TAFAVL
TAF COR
KAVL 230540Z 2306/2406 33011KT P6SM FEW040
     FM231600 33009KT P6SM FEW250=



000
FTUS42 KGSP 230532
TAFGSP
TAF
KGSP 230532Z 2306/2406 00000KT P6SM SKC
     FM231800 29004KT P6SM SKC
     FM240000 00000KT P6SM FEW250=



000
FTUS42 KGSP 230532
TAFAVL
TAF
KAVL 230532Z 2306/2406 33006KT P6SM FEW040
     FM231600 33009KT P6SM FEW250=



000
FTUS42 KGSP 230532
TAFCLT
TAF
KCLT 230532Z 2306/2406 33006KT P6SM SKC
     FM240100 34003KT P6SM FEW250=



000
FTUS42 KGSP 222320
TAFCLT
TAF
KCLT 222320Z 2300/2324 34010KT P6SM SKC
     FM230500 33006KT P6SM SKC=



000
FTUS42 KGSP 222320
TAFGSP
TAF
KGSP 222320Z 2300/2324 36007KT P6SM SKC
     FM231800 29004KT P6SM SKC=



000
FTUS42 KGSP 222320
TAFAVL
TAF
KAVL 222320Z 2300/2324 33011KT P6SM FEW250
     FM230100 33010KT P6SM FEW040
     FM231600 33009KT P6SM FEW250=



000
FTUS42 KGSP 222052 AAA
TAFCLT
TAF AMD
KCLT 222052Z 2221/2318 34010G15KT P6SM FEW060
     FM230000 34009KT P6SM SKC
     FM230600 33004KT P6SM SKC=



000
FTUS42 KGSP 221700
TAFCLT
TAF
KCLT 221731Z 2218/2318 34012G18KT P6SM FEW060
     FM230000 34009KT P6SM SKC
     FM230600 33004KT P6SM SKC=



000
FTUS42 KGSP 221700
TAFGSP
TAF
KGSP 221731Z 2218/2318 36010G17KT P6SM SKC
     FM230300 36005KT P6SM SKC=



000
FTUS42 KGSP 221700
TAFAVL
TAF
KAVL 221731Z 2218/2318 35013G24KT P6SM FEW040
     FM222300 33011KT P6SM FEW250
     FM230300 33008KT P6SM FEW040
      TEMPO 2308/2312 BKN020
     FM231500 33010KT P6SM FEW250=



000
FTUS42 KGSP 221700
TAFCLT
TAF
KCLT 221731Z 2218/2318 34012G18KT P6SM FEW060
     FM230000 34009KT P6SM SKC
     FM230600 33004KT P6SM SKC=



000
FTUS42 KGSP 221700
TAFAVL
TAF
KAVL 221731Z 2218/2318 35013G24KT P6SM FEW040
     FM222300 33011KT P6SM FEW250
     FM230300 33008KT P6SM FEW040
      TEMPO 2308/2312 BKN020
     FM231500 33010KT P6SM FEW250=



000
FTUS42 KGSP 221700
TAFGSP
TAF
KGSP 221731Z 2218/2318 36010G17KT P6SM SKC
     FM230300 36005KT P6SM SKC=



000
FTUS42 KGSP 221600 AAB
TAFAVL
TAF AMD
KAVL 221644Z 2217/2312 35015G23KT P6SM SCT035
     FM222300 35011KT P6SM FEW250=



000
FTUS42 KGSP 221600 AAB
TAFAVL
TAF AMD
KAVL 221644Z 2217/2312 35015G23KT P6SM SCT035
     FM222300 35011KT P6SM FEW250=



000
FTUS42 KGSP 221400 AAA
TAFAVL
TAF AMD
KAVL 221443Z 2215/2312 35015G23KT P6SM SCT035
      TEMPO 2215/2218 BKN030
     FM222300 35011KT P6SM FEW250=



000
FTUS42 KGSP 221400 AAA
TAFCLT
TAF AMD
KCLT 221437Z 2215/2312 34014G21KT P6SM SKC
     FM221800 35016G24KT P6SM FEW250
     FM230000 34005KT P6SM FEW250=



000
FTUS42 KGSP 221100
TAFAVL
TAF
KAVL 221121Z 2212/2312 34011G20KT P6SM SCT035
      TEMPO 2212/2215 BKN035
     FM221500 35013G23KT P6SM SCT040
     FM222300 35011KT P6SM FEW250=



000
FTUS42 KGSP 221100
TAFGSP
TAF
KGSP 221121Z 2212/2312 35005KT P6SM SKC
     FM221500 35009G18KT P6SM SKC
     FM230100 35004KT P6SM SKC=



000
FTUS42 KGSP 221100
TAFCLT
TAF
KCLT 221121Z 2212/2312 34008G16KT P6SM SKC
     FM221800 35009G18KT P6SM FEW250
     FM230000 34005KT P6SM FEW250=



000
FTUS42 KGSP 220900 AAA
TAFCLT
TAF AMD
KCLT 220911Z 2209/2306 36009KT P6SM SKC
     FM221800 34008G17KT P6SM FEW250
     FM230000 34005KT P6SM FEW250=



000
FTUS42 KGSP 220500
TAFCLT
TAF
KCLT 220523Z 2206/2306 34008KT P6SM SKC
     FM221800 34008G17KT P6SM FEW250
     FM230000 34005KT P6SM FEW250=



000
FTUS42 KGSP 220500
TAFGSP
TAF
KGSP 220523Z 2206/2306 34012G22KT P6SM SKC
     FM221000 34007KT P6SM SKC
     FM230100 35005KT P6SM SKC=



000
FTUS42 KGSP 220500
TAFAVL
TAF
KAVL 220523Z 2206/2306 32010G19KT P6SM FEW040
     FM221200 35013G22KT P6SM FEW025
     FM222200 35011KT P6SM SKC=



000
FTUS42 KGSP 220500
TAFGSP
TAF
KGSP 220523Z 2206/2306 34012G22KT P6SM SKC
     FM221000 34007KT P6SM SKC
     FM230100 35005KT P6SM SKC=



000
FTUS42 KGSP 220500
TAFCLT
TAF
KCLT 220523Z 2206/2306 34008KT P6SM SKC
     FM221800 34008G17KT P6SM FEW250
     FM230000 34005KT P6SM FEW250=



000
FTUS42 KGSP 220500
TAFAVL
TAF
KAVL 220523Z 2206/2306 32010G19KT P6SM FEW040
     FM221200 35013G22KT P6SM FEW025
     FM222200 35011KT P6SM SKC=



000
FTUS42 KGSP 220300 AAA
TAFGSP
TAF AMD
KGSP 220315Z 2203/2224 36010G20KT P6SM SKC
     FM220600 36007KT P6SM SKC=



000
FTUS42 KGSP 212300
TAFGSP
TAF
KGSP 212336Z 2200/2224 36006KT P6SM SKC=



000
FTUS42 KGSP 212300
TAFCLT
TAF
KCLT 212336Z 2200/2224 35008KT P6SM FEW070
     FM221800 34008G15KT P6SM FEW250=



000
FTUS42 KGSP 212300
TAFAVL
TAF
KAVL 212336Z 2200/2224 34009KT P6SM FEW040
     FM220200 34010G19KT P6SM SCT025 BKN040
     FM221200 35013G22KT P6SM FEW025
     FM222200 35011KT P6SM SKC=



000
FTUS42 KGSP 212100 AAA
TAFGSP
TAF AMD
KGSP 212102Z 2121/2218 32005KT P6SM SCT070
     FM220000 35007KT P6SM FEW050
     FM220600 35005KT P6SM SKC=



000
FTUS42 KGSP 212000 AAA
TAFCLT
TAF AMD
KCLT 212058Z 2121/2218 30008G16KT P6SM SCT070
     FM220000 34008KT P6SM SKC=



000
FTUS42 KGSP 211800 AAA
TAFGSP
TAF AMD
KGSP 211845Z 2119/2218 26005KT P6SM FEW050 FEW250
     FM212100 30010G20KT P6SM SCT050
     FM220000 35007KT P6SM FEW050
     FM220600 35005KT P6SM SKC=



000
FTUS42 KGSP 211700
TAFCLT
TAF
KCLT 211728Z 2118/2218 28006KT P6SM FEW050 FEW250
     FM212000 30010G18KT P6SM SCT045
      TEMPO 2120/2124 BKN045
     FM220000 34008KT P6SM SKC=



000
FTUS42 KGSP 211700
TAFGSP
TAF
KGSP 211728Z 2118/2218 26007G16KT P6SM FEW250
     FM212200 30010G20KT P6SM SCT060
     FM220000 35007KT P6SM FEW060
     FM220600 35005KT P6SM SKC=



000
FTUS42 KGSP 211700
TAFAVL
TAF
KAVL 211728Z 2118/2218 33010G25KT P6SM SCT045
     FM220600 33010G22KT P6SM BKN035
     FM220900 33009G18KT P6SM BKN010
     FM221500 34013G25KT P6SM FEW012 SCT040=



000
FTUS42 KGSP 211400 AAA
TAFCLT
TAF AMD
KCLT 211459Z 2115/2212 22003KT P6SM FEW250
     FM211800 28008KT P6SM FEW250
     FM212000 30010G18KT P6SM FEW050 FEW250
     FM220100 33009KT P6SM FEW250=



    US Dept of Commerce
    National Oceanic and Atmospheric Administration
    National Weather Service
    1325 East West Highway
    Silver Spring, MD 20910
    Page Author: NWS Internet Services Team
Disclaimer
Information Quality
Credits
Glossary
Privacy Policy
Freedom of Information Act (FOIA)
About Us
Career Opportunities